Time;durP1;ratioP1;P1;durP2;ratioP2;P2;SDS_P1;SDS_P2;PMS_P1;PMS_P2;Temp;Humidity;BMP_temperature;BMP_pressure;BME280_temperature;BME280_humidity;BME280_pressure;Samples;Min_cycle;Max_cycle;Signal;HPM_P1;HPM_P2
2022/07/11 00:02:01;;;;;;;12.27;4.70;;;;;;;28.63;69.72;100555.41;4956114;28;66548;-34
2022/07/11 00:04:33;;;;;;;5.55;3.92;;;;;;;28.67;69.54;100562.06;4953765;28;69777;-32
2022/07/11 00:07:05;;;;;;;4.18;3.65;;;;;;;28.67;69.84;100551.25;5021617;28;65364;-34
2022/07/11 00:09:36;;;;;;;4.70;4.28;;;;;;;28.70;69.94;100550.84;4957226;28;70632;-32
2022/07/11 00:12:08;;;;;;;8.20;4.85;;;;;;;28.77;71.02;100562.41;4956219;28;67168;-32
2022/07/11 00:14:39;;;;;;;;;;;;;;;28.51;71.94;100550.69;4957997;28;70811;-32
2022/07/11 00:17:10;;;;;;;7.60;3.35;;;;;;;28.77;69.92;100561.59;4955375;28;65971;-34
2022/07/11 00:19:41;;;;;;;7.63;3.22;;;;;;;28.79;70.69;100560.34;5017010;28;69955;-35
2022/07/11 00:22:12;;;;;;;5.05;3.63;;;;;;;28.85;70.54;100555.97;4957038;28;66505;-34
2022/07/11 00:24:43;;;;;;;5.40;2.83;;;;;;;28.90;70.21;100546.16;5023543;28;69648;-33
2022/07/11 00:27:14;;;;;;;3.83;3.13;;;;;;;28.93;70.53;100540.34;5014752;28;64968;-34
2022/07/11 00:29:45;;;;;;;7.20;3.50;;;;;;;28.62;71.42;100483.59;4956367;28;69676;-36
2022/07/11 00:32:16;;;;;;;8.23;2.83;;;;;;;29.00;71.15;100550.28;4957349;28;66528;-35
2022/07/11 00:34:47;;;;;;;2.85;2.17;;;;;;;29.07;68.09;100557.34;4949105;28;70017;-34
2022/07/11 00:37:18;;;;;;;3.92;2.42;;;;;;;29.11;67.90;100563.13;4956189;28;66366;-34
2022/07/11 00:39:59;;;;;;;3.45;1.90;;;;;;;29.18;68.60;100570.16;4956487;28;72214;-34
2022/07/11 00:42:31;;;;;;;2.17;1.98;;;;;;;29.22;67.56;100565.13;5016793;28;66381;-33
2022/07/11 00:45:02;;;;;;;9.45;2.20;;;;;;;29.28;67.65;100575.09;4955752;28;70220;-34
2022/07/11 00:47:33;;;;;;;2.65;2.17;;;;;;;29.32;67.60;100581.72;4954772;28;66431;-34
2022/07/11 00:50:05;;;;;;;6.78;2.67;;;;;;;29.35;67.19;100581.28;4956002;28;69430;-34
2022/07/11 00:52:36;;;;;;;;;;;;;;;29.06;69.33;100576.44;5018477;28;66338;-34
2022/07/11 00:55:09;;;;;;;2.63;2.17;;;;;;;29.40;66.99;100578.75;5019662;28;68589;-33
2022/07/11 00:57:41;;;;;;;2.80;2.10;;;;;;;29.39;66.94;100579.81;4950734;28;66410;-34
2022/07/11 01:00:12;;;;;;;4.07;2.13;;;;;;;29.50;66.50;100589.06;4956083;28;70933;-34
2022/07/11 01:02:43;;;;;;;2.92;2.20;;;;;;;29.51;66.72;100579.09;4954529;28;66189;-34
2022/07/11 01:05:14;;;;;;;4.43;2.13;;;;;;;29.54;66.56;100573.28;4958427;28;71568;-36
2022/07/11 01:07:45;;;;;;;2.47;1.90;;;;;;;29.57;65.82;100572.81;4959845;28;66036;-34
2022/07/11 01:10:16;;;;;;;3.08;2.45;;;;;;;29.59;65.51;100570.75;4958487;28;70740;-33
2022/07/11 01:12:47;;;;;;;2.28;2.08;;;;;;;29.57;66.02;100578.22;4960228;28;66540;-33
2022/07/11 01:15:18;;;;;;;2.50;2.30;;;;;;;29.62;65.61;100591.91;4957442;28;70134;-34
2022/07/11 01:17:48;;;;;;;2.78;2.58;;;;;;;29.64;65.73;100589.84;4959559;28;65620;-33
2022/07/11 01:20:22;;;;;;;2.30;2.10;;;;;;;29.65;65.59;100586.09;5026566;28;69078;-34
2022/07/11 01:22:56;;;;;;;2.63;2.20;;;;;;;29.67;65.50;100597.53;4959791;28;65747;-33
2022/07/11 01:25:30;;;;;;;2.72;1.90;;;;;;;29.63;65.63;100590.91;4957405;28;69697;-33
2022/07/11 01:28:03;;;;;;;2.70;2.47;;;;;;;29.70;65.36;100609.75;4960583;28;66605;-33
2022/07/11 01:30:35;;;;;;;3.03;2.30;;;;;;;29.70;64.89;100601.66;4955283;28;71075;-34
2022/07/11 01:33:06;;;;;;;2.83;2.63;;;;;;;29.68;65.20;100603.75;4961227;28;66043;-34
2022/07/11 01:35:37;;;;;;;2.53;2.10;;;;;;;29.71;65.10;100606.03;4961088;28;71551;-33
2022/07/11 01:38:08;;;;;;;2.45;2.25;;;;;;;29.71;64.93;100612.25;4960400;28;66466;-33
2022/07/11 01:40:39;;;;;;;2.47;2.28;;;;;;;29.73;64.33;100620.97;4960141;28;69602;-33
2022/07/11 01:43:10;;;;;;;3.35;2.72;;;;;;;29.73;64.27;100620.97;5022839;28;65805;-34
2022/07/11 01:45:40;;;;;;;2.97;2.78;;;;;;;29.74;64.77;100622.63;4960015;28;70559;-33
2022/07/11 01:48:12;;;;;;;5.38;2.70;;;;;;;29.75;64.09;100623.44;4961084;28;65639;-33
2022/07/11 01:50:43;;;;;;;3.58;2.60;;;;;;;29.76;64.10;100627.84;4956112;28;68641;-34
2022/07/11 01:53:14;;;;;;;3.88;3.40;;;;;;;29.77;64.52;100637.59;5015847;28;66196;-33
2022/07/11 01:55:45;;;;;;;3.78;3.40;;;;;;;29.77;64.18;100629.47;4959179;28;70412;-33
2022/07/11 01:58:36;;;;;;;3.78;3.03;;;;;;;29.78;64.12;100640.09;4967137;28;65800;-33
2022/07/11 02:01:07;;;;;;;2.95;2.75;;;;;;;29.79;64.13;100628.22;4959742;28;69938;-33
2022/07/11 02:03:38;;;;;;;3.63;2.80;;;;;;;29.81;64.36;100636.94;4958628;28;66958;-34
2022/07/11 02:06:09;;;;;;;;;;;;;;;29.45;64.99;100640.25;4959045;28;70085;-34
2022/07/11 02:08:40;;;;;;;2.90;2.50;;;;;;;29.77;64.43;100635.72;4956608;28;66470;-33
2022/07/11 02:11:11;;;;;;;2.97;2.67;;;;;;;29.83;63.59;100642.94;4959064;28;69174;-33
2022/07/11 02:13:42;;;;;;;3.00;2.80;;;;;;;29.83;63.70;100642.94;4958970;28;65374;-34
2022/07/11 02:16:14;;;;;;;4.82;2.85;;;;;;;29.87;64.09;100650.63;4960502;28;70435;-33
2022/07/11 02:18:45;;;;;;;4.67;2.60;;;;;;;29.89;63.79;100648.53;4959754;28;66537;-34
2022/07/11 02:21:16;;;;;;;4.25;2.88;;;;;;;29.83;63.90;100632.13;4956788;28;70440;-34
2022/07/11 02:23:47;;;;;;;4.13;3.13;;;;;;;29.86;63.79;100632.75;4959054;28;65844;-33
2022/07/11 02:26:18;;;;;;;3.20;3.00;;;;;;;29.85;63.47;100623.81;4959993;28;69934;-33
2022/07/11 02:28:49;;;;;;;3.85;3.55;;;;;;;29.98;63.10;100639.13;4960429;28;66650;-33
2022/07/11 02:31:20;;;;;;;3.53;2.92;;;;;;;30.00;63.30;100648.63;4954970;28;69748;-34
2022/07/11 02:33:51;;;;;;;3.22;2.92;;;;;;;30.00;62.88;100642.41;4954214;28;65511;-34
2022/07/11 02:36:21;;;;;;;3.80;3.10;;;;;;;30.04;63.43;100638.22;4959264;28;69744;-32
2022/07/11 02:38:53;;;;;;;3.05;2.83;;;;;;;29.79;63.18;100593.06;4957820;28;66368;-35
2022/07/11 02:41:25;;;;;;;3.35;3.05;;;;;;;30.04;63.27;100630.94;4960314;28;70562;-34
2022/07/11 02:43:56;;;;;;;3.35;3.05;;;;;;;30.10;63.11;100628.41;4960074;28;66677;-34
2022/07/11 02:46:27;;;;;;;3.17;2.97;;;;;;;30.12;62.58;100640.66;4958538;28;70541;-34
2022/07/11 02:48:58;;;;;;;3.53;3.10;;;;;;;30.13;62.54;100628.78;5022991;28;66383;-34
2022/07/11 02:51:28;;;;;;;3.00;2.70;;;;;;;30.16;62.44;100628.34;4959794;28;69652;-33
2022/07/11 02:53:59;;;;;;;3.70;3.38;;;;;;;30.18;62.75;100623.53;4958077;28;66087;-35
2022/07/11 02:56:30;;;;;;;3.53;3.22;;;;;;;30.20;62.65;100616.03;4958816;28;69836;-36
2022/07/11 02:59:01;;;;;;;3.42;3.17;;;;;;;30.23;62.83;100618.31;4959467;28;64967;-33
2022/07/11 03:01:32;;;;;;;3.50;3.17;;;;;;;30.21;62.97;100601.44;4958040;28;70169;-33
2022/07/11 03:04:03;;;;;;;3.35;2.70;;;;;;;30.19;62.25;100600.84;4959807;28;66695;-33
2022/07/11 03:06:34;;;;;;;4.40;3.30;;;;;;;30.28;62.64;100615.78;4955197;28;69653;-33
2022/07/11 03:09:06;;;;;;;3.78;3.40;;;;;;;30.28;62.33;100602.25;5032297;28;65126;-34
2022/07/11 03:11:37;;;;;;;5.57;2.97;;;;;;;30.33;62.25;100606.16;4959489;28;70079;-35
2022/07/11 03:14:09;;;;;;;3.72;3.42;;;;;;;30.35;62.43;100607.59;4958415;28;66754;-32
2022/07/11 03:16:39;;;;;;;3.38;3.08;;;;;;;30.38;62.18;100606.31;4959925;28;71170;-34
2022/07/11 03:19:11;;;;;;;4.07;3.67;;;;;;;30.39;62.65;100605.25;5022103;28;66177;-34
2022/07/11 03:21:42;;;;;;;3.83;3.47;;;;;;;30.38;62.41;100590.91;5020408;28;70433;-34
2022/07/11 03:24:13;;;;;;;3.20;2.90;;;;;;;30.39;62.09;100602.56;5025179;28;65697;-34
2022/07/11 03:26:44;;;;;;;4.53;2.85;;;;;;;30.47;62.26;100604.97;4957737;28;70110;-34
2022/07/11 03:29:15;;;;;;;3.13;2.92;;;;;;;30.45;62.42;100594.38;4956413;28;65805;-35
2022/07/11 03:31:46;;;;;;;3.30;3.00;;;;;;;30.49;62.20;100602.88;4959145;28;70102;-34
2022/07/11 03:34:17;;;;;;;3.80;3.50;;;;;;;30.52;61.75;100601.59;4958663;28;65889;-34
2022/07/11 03:36:48;;;;;;;3.92;3.10;;;;;;;30.56;61.79;100603.59;4954209;28;69143;-34
2022/07/11 03:39:21;;;;;;;3.45;3.15;;;;;;;30.59;61.87;100596.91;4958562;28;66392;-34
2022/07/11 03:41:52;;;;;;;3.33;3.03;;;;;;;30.59;61.57;100600.47;4958511;28;69982;-34
2022/07/11 03:44:23;;;;;;;2.97;2.67;;;;;;;30.62;62.19;100602.72;4969295;28;67077;-36
2022/07/11 03:46:54;;;;;;;3.05;2.70;;;;;;;30.62;61.93;100593.75;4956003;28;70203;-33
2022/07/11 03:49:25;;;;;;;4.22;3.30;;;;;;;30.66;61.67;100597.69;4955640;28;65475;-34
2022/07/11 03:51:56;;;;;;;3.25;2.72;;;;;;;30.67;61.85;100599.34;5024686;28;69812;-33
2022/07/11 03:54:27;;;;;;;4.93;2.60;;;;;;;30.38;61.48;100557.59;4959487;28;65940;-34
2022/07/11 03:56:58;;;;;;;6.80;2.67;;;;;;;30.66;61.61;100581.44;5020649;28;69801;-34
2022/07/11 03:59:29;;;;;;;3.30;3.00;;;;;;;30.72;61.92;100597.59;4958003;28;66531;-34
2022/07/11 04:01:59;;;;;;;3.70;2.88;;;;;;;30.58;61.46;100563.63;4956864;28;69914;-33
2022/07/11 04:04:31;;;;;;;4.25;3.80;;;;;;;30.79;61.64;100591.31;4956954;28;66223;-34
2022/07/11 04:07:01;;;;;;;3.65;3.25;;;;;;;30.84;61.79;100586.03;4956707;28;69277;-33
2022/07/11 04:09:32;;;;;;;3.25;2.97;;;;;;;30.85;61.64;100593.13;4957416;28;65520;-33
2022/07/11 04:12:03;;;;;;;3.87;3.27;;;;;;;30.88;61.65;100581.84;5017232;28;69257;-34
2022/07/11 04:14:34;;;;;;;4.15;3.75;;;;;;;30.90;61.91;100582.44;4954847;28;66649;-33
2022/07/11 04:17:05;;;;;;;4.32;3.15;;;;;;;30.90;61.68;100571.63;4955699;28;70167;-33
2022/07/11 04:19:38;;;;;;;4.60;3.70;;;;;;;30.94;61.47;100570.91;4957299;28;65503;-34
2022/07/11 04:22:09;;;;;;;7.10;3.33;;;;;;;31.00;61.22;100576.47;4951956;28;69257;-33
2022/07/11 04:24:40;;;;;;;4.82;3.05;;;;;;;31.01;61.86;100568.13;4955784;28;67635;-35
2022/07/11 04:27:11;;;;;;;3.53;3.20;;;;;;;31.05;61.80;100569.31;4958456;28;70791;-34
2022/07/11 04:29:49;;;;;;;3.40;3.10;;;;;;;31.08;61.71;100566.16;4956286;28;66307;-34
2022/07/11 04:32:20;;;;;;;3.15;2.85;;;;;;;31.11;61.81;100552.13;4955791;28;70876;-33
2022/07/11 04:34:51;;;;;;;4.25;3.00;;;;;;;31.15;61.48;100547.94;5004486;28;65425;-33
2022/07/11 04:37:22;;;;;;;4.18;3.00;;;;;;;31.19;61.70;100542.03;4955879;28;70313;-34
2022/07/11 04:39:53;;;;;;;3.53;3.22;;;;;;;31.23;61.71;100535.09;4955410;28;65544;-34
2022/07/11 04:42:24;;;;;;;3.37;2.60;;;;;;;31.25;61.64;100535.69;4961772;28;69340;-33
2022/07/11 04:44:55;;;;;;;3.72;2.88;;;;;;;31.29;61.35;100536.91;5024787;28;65453;-34
2022/07/11 04:47:26;;;;;;;3.00;2.60;;;;;;;31.32;61.57;100534.53;5026641;28;70692;-34
2022/07/11 04:49:56;;;;;;;4.38;2.97;;;;;;;31.34;61.35;100527.03;4959455;28;65417;-34
2022/07/11 04:52:27;;;;;;;2.90;2.45;;;;;;;31.36;61.68;100524.91;5027342;28;69270;-32
2022/07/11 04:54:58;;;;;;;3.60;2.85;;;;;;;31.38;61.58;100524.69;4960438;28;66826;-34
2022/07/11 04:57:29;;;;;;;3.65;2.80;;;;;;;31.40;61.34;100522.59;5021631;28;70442;-36
2022/07/11 05:00:00;;;;;;;3.22;2.45;;;;;;;31.41;61.38;100518.81;4955820;28;65994;-34
2022/07/11 05:02:31;;;;;;;2.63;2.43;;;;;;;31.35;61.89;100503.44;4963870;28;70441;-34
2022/07/11 05:05:03;;;;;;;3.35;2.85;;;;;;;31.42;61.54;100501.47;4960314;28;66663;-34
2022/07/11 05:07:34;;;;;;;4.53;2.57;;;;;;;31.41;61.77;100501.72;4959194;28;69878;-34
2022/07/11 05:10:06;;;;;;;3.40;2.60;;;;;;;31.42;61.38;100490.63;4959433;28;66337;-34
2022/07/11 05:12:37;;;;;;;2.42;2.10;;;;;;;31.40;61.67;100490.06;4954097;28;69285;-33
2022/07/11 05:15:08;;;;;;;2.70;2.50;;;;;;;31.38;61.66;100474.00;4953437;28;65708;-33
2022/07/11 05:17:39;;;;;;;2.83;2.53;;;;;;;31.42;61.66;100479.78;4960824;28;69172;-36
2022/07/11 05:20:14;;;;;;;14.13;2.78;;;;;;;31.43;61.80;100472.50;4960417;28;65398;-33
2022/07/11 05:22:46;;;;;;;2.30;2.10;;;;;;;31.46;61.66;100461.19;4960081;28;70154;-34
2022/07/11 05:25:17;;;;;;;3.80;2.53;;;;;;;31.37;61.64;100441.72;5026656;28;65983;-35
2022/07/11 05:27:48;;;;;;;3.50;2.00;;;;;;;31.39;61.53;100442.31;5024553;28;69935;-38
2022/07/11 05:30:19;;;;;;;3.63;2.33;;;;;;;31.44;61.56;100442.44;4954163;28;66656;-33
2022/07/11 05:32:50;;;;;;;3.92;2.65;;;;;;;31.47;61.66;100441.97;4961817;28;69553;-35
2022/07/11 05:35:21;;;;;;;2.72;2.47;;;;;;;31.48;61.45;100438.22;5020039;28;67562;-34
2022/07/11 05:37:52;;;;;;;4.65;2.85;;;;;;;31.51;61.60;100437.75;4960861;28;70266;-34
2022/07/11 05:40:23;;;;;;;7.40;2.53;;;;;;;31.51;61.46;100424.19;4959606;28;67620;-35
2022/07/11 05:42:54;;;;;;;4.40;2.35;;;;;;;31.55;61.25;100424.53;4957161;28;69898;-35
2022/07/11 05:45:25;;;;;;;3.17;2.10;;;;;;;31.54;61.64;100431.84;4960582;28;65355;-35
2022/07/11 05:47:56;;;;;;;3.90;2.58;;;;;;;31.54;61.84;100418.28;4956421;28;70552;-34
2022/07/11 05:50:27;;;;;;;8.97;2.07;;;;;;;31.57;61.68;100425.94;4959925;28;65348;-35
2022/07/11 05:52:58;;;;;;;4.28;2.97;;;;;;;31.61;61.44;100420.88;4957237;28;70143;-34
2022/07/11 05:55:30;;;;;;;3.28;2.70;;;;;;;31.63;61.58;100416.03;5024044;28;66055;-33
2022/07/11 05:58:01;;;;;;;3.35;2.67;;;;;;;31.60;61.51;100414.63;4955685;28;69939;-34
2022/07/11 06:00:32;;;;;;;3.30;3.00;;;;;;;31.47;61.53;100392.34;4959417;28;66149;-34
2022/07/11 06:03:03;;;;;;;2.85;2.53;;;;;;;31.69;61.21;100414.28;4959022;28;69384;-34
2022/07/11 06:05:34;;;;;;;3.95;3.00;;;;;;;31.68;61.79;100407.19;4959336;28;66473;-36
2022/07/11 06:10:55;;;;;;;3.70;2.90;;;;;;;31.70;62.08;100402.34;4956550;28;67000;-35
2022/07/11 06:13:26;;;;;;;4.55;2.65;;;;;;;31.69;61.30;100406.97;5023775;28;70180;-34
2022/07/11 06:15:57;;;;;;;3.95;2.53;;;;;;;31.69;61.52;100411.56;4959767;28;65815;-38
2022/07/11 06:18:28;;;;;;;4.93;2.58;;;;;;;31.69;61.53;100411.56;5007766;28;70123;-34
2022/07/11 06:21:00;;;;;;;3.78;3.10;;;;;;;31.69;62.04;100414.28;5024299;28;65979;-35
2022/07/11 06:23:31;;;;;;;2.88;2.35;;;;;;;31.71;61.81;100404.03;4959356;28;69631;-34
2022/07/11 06:26:03;;;;;;;;;;;;;;;31.35;62.44;100389.63;5022835;28;66428;-35
2022/07/11 06:28:34;;;;;;;4.80;2.47;;;;;;;31.68;61.75;100391.75;5024195;28;69977;-34
2022/07/11 06:31:05;;;;;;;3.10;2.87;;;;;;;31.74;61.88;100390.00;5004592;28;65412;-36
2022/07/11 06:33:36;;;;;;;5.18;2.88;;;;;;;31.73;62.02;100380.19;4952889;28;69085;-37
2022/07/11 06:36:08;;;;;;;4.32;2.60;;;;;;;31.74;61.81;100369.13;4957654;28;64681;-36
2022/07/11 06:38:38;;;;;;;3.15;2.72;;;;;;;31.80;61.68;100370.88;4957178;28;70144;-35
2022/07/11 06:41:10;;;;;;;4.88;2.95;;;;;;;31.84;61.92;100354.94;4955556;28;65322;-37
2022/07/11 06:43:41;;;;;;;4.65;3.03;;;;;;;31.86;61.59;100357.41;5020717;28;69331;-33
2022/07/11 06:46:13;;;;;;;5.90;2.67;;;;;;;31.89;61.98;100355.03;4954725;28;66253;-35
2022/07/11 06:48:45;;;;;;;3.93;3.07;;;;;;;31.93;61.82;100353.53;4957962;28;71376;-36
2022/07/11 06:51:15;;;;;;;;;;;;;;;31.63;62.84;100336.59;4957370;28;66510;-36
2022/07/11 06:53:46;;;;;;;7.25;3.22;;;;;;;31.93;62.06;100337.25;4955201;28;69450;-34
2022/07/11 06:56:17;;;;;;;6.47;2.90;;;;;;;31.99;61.81;100339.00;4957153;28;66322;-35
2022/07/11 06:58:48;;;;;;;6.30;2.80;;;;;;;32.02;62.01;100335.00;5021740;28;70347;-34
2022/07/11 07:01:19;;;;;;;5.00;2.92;;;;;;;32.05;61.97;100335.31;4958310;28;66747;-34
2022/07/11 07:03:51;;;;;;;5.83;2.77;;;;;;;32.05;62.22;100335.31;4958878;28;70444;-34
2022/07/11 07:06:21;;;;;;;5.68;3.08;;;;;;;32.07;62.02;100337.81;5023826;28;65092;-36
2022/07/11 07:08:52;;;;;;;6.00;3.05;;;;;;;32.09;62.08;100335.66;4952361;28;69292;-35
2022/07/11 07:11:23;;;;;;;6.13;3.13;;;;;;;32.09;62.17;100322.09;5021183;28;65928;-33
2022/07/11 07:13:54;;;;;;;8.05;2.75;;;;;;;32.07;62.01;100317.97;4958531;28;71873;-34
2022/07/11 07:16:25;;;;;;;3.72;2.97;;;;;;;32.10;62.01;100314.81;5023561;28;66095;-34
2022/07/11 07:18:56;;;;;;;4.72;2.60;;;;;;;32.15;61.87;100312.16;4957177;28;69983;-34
2022/07/11 07:21:27;;;;;;;6.03;3.03;;;;;;;32.13;62.39;100314.31;4955250;28;66396;-33
2022/07/11 07:23:57;;;;;;;4.32;2.58;;;;;;;32.19;62.29;100302.47;4959316;28;70358;-35
2022/07/11 07:26:28;;;;;;;6.30;2.80;;;;;;;32.21;61.88;100305.78;4955711;28;66203;-34
2022/07/11 07:29:00;;;;;;;6.40;3.08;;;;;;;32.21;61.83;100309.31;5019643;28;70883;-34
2022/07/11 07:31:30;;;;;;;6.17;3.33;;;;;;;32.21;61.98;100301.19;4959364;28;65467;-33
2022/07/11 07:34:01;;;;;;;4.03;2.80;;;;;;;32.22;62.22;100302.81;5024556;28;69313;-35
2022/07/11 07:36:32;;;;;;;3.30;2.45;;;;;;;32.22;61.96;100302.00;5018357;28;66786;-33
2022/07/11 07:39:03;;;;;;;4.85;2.78;;;;;;;32.14;61.84;100286.09;5022221;28;69727;-33
2022/07/11 07:41:34;;;;;;;3.38;2.45;;;;;;;32.26;61.79;100298.56;5022671;28;66505;-34
2022/07/11 07:44:05;;;;;;;7.55;2.80;;;;;;;32.26;62.00;100297.72;5020918;28;69400;-34
2022/07/11 07:46:36;;;;;;;4.57;2.88;;;;;;;32.24;61.84;100295.25;4958851;28;67234;-33
2022/07/11 07:49:07;;;;;;;7.25;3.05;;;;;;;32.23;61.96;100309.06;4957389;28;71439;-33
2022/07/11 07:51:38;;;;;;;4.32;3.05;;;;;;;32.26;61.98;100300.44;4952284;28;65316;-35
2022/07/11 07:54:09;;;;;;;3.40;2.88;;;;;;;32.26;62.13;100301.28;4958018;28;69478;-33
2022/07/11 07:56:40;;;;;;;5.87;3.03;;;;;;;32.26;61.96;100297.72;4954867;28;65215;-34
2022/07/11 07:59:11;;;;;;;3.83;2.65;;;;;;;32.19;62.12;100291.63;4958197;28;70029;-35
2022/07/11 08:01:45;;;;;;;5.93;2.90;;;;;;;32.24;62.19;100283.59;5023352;28;65678;-34
2022/07/11 08:04:17;;;;;;;5.93;3.28;;;;;;;32.27;62.11;100293.94;5023918;28;70167;-34
2022/07/11 08:06:47;;;;;;;7.68;3.20;;;;;;;32.20;62.53;100276.97;4958145;28;66098;-34
2022/07/11 08:09:19;;;;;;;5.78;3.45;;;;;;;32.26;62.32;100292.28;4957169;28;70164;-34
2022/07/11 08:11:50;;;;;;;3.92;3.22;;;;;;;32.17;62.50;100289.16;4953380;28;65591;-35
2022/07/11 08:14:22;;;;;;;5.07;2.77;;;;;;;32.25;62.55;100298.78;4956220;28;69909;-34
2022/07/11 08:16:53;;;;;;;6.45;2.90;;;;;;;32.26;62.61;100286.84;4957304;28;66465;-35
2022/07/11 08:19:24;;;;;;;6.25;3.70;;;;;;;32.26;62.87;100286.84;4957420;28;70459;-34
2022/07/11 08:21:55;;;;;;;5.68;4.07;;;;;;;32.24;62.86;100289.00;4955844;28;66809;-34
2022/07/11 08:24:26;;;;;;;9.75;3.80;;;;;;;32.25;62.69;100290.66;4952024;28;70423;-34
2022/07/11 08:26:56;;;;;;;5.60;4.43;;;;;;;32.25;62.94;100285.22;4951704;28;66294;-33
2022/07/11 08:29:47;;;;;;;7.50;4.75;;;;;;;32.15;62.63;100279.59;5009827;28;70025;-35
2022/07/11 08:32:18;;;;;;;5.75;4.15;;;;;;;32.21;62.66;100284.06;4957645;28;66221;-34
2022/07/11 08:34:49;;;;;;;7.63;4.35;;;;;;;32.19;63.08;100281.59;4963252;28;69553;-34
2022/07/11 08:37:20;;;;;;;8.88;4.85;;;;;;;32.21;62.87;100284.06;4955221;28;66471;-34
2022/07/11 08:39:50;;;;;;;7.32;4.50;;;;;;;32.19;62.78;100287.03;4955776;28;70342;-34
2022/07/11 08:42:28;;;;;;;10.55;5.47;;;;;;;31.91;62.78;100241.75;4954618;28;65710;-34
2022/07/11 08:45:00;;;;;;;8.77;5.10;;;;;;;32.20;62.96;100294.09;4950439;28;70626;-35
2022/07/11 08:47:31;;;;;;;8.85;5.60;;;;;;;32.17;62.85;100288.31;4957041;28;65285;-33
2022/07/11 08:50:03;;;;;;;7.20;5.97;;;;;;;32.17;63.12;100291.84;4952987;28;69403;-37
2022/07/11 08:52:34;;;;;;;9.02;5.15;;;;;;;32.20;63.02;100290.56;5026268;28;66616;-34
2022/07/11 08:55:09;;;;;;;6.40;4.28;;;;;;;32.19;63.31;100286.19;4956639;28;69892;-35
2022/07/11 08:57:39;;;;;;;7.78;4.95;;;;;;;32.18;63.09;100279.09;4953952;28;66014;-33
2022/07/11 09:00:10;;;;;;;6.97;4.38;;;;;;;32.20;62.74;100283.22;4957469;28;70099;-35
2022/07/11 09:02:43;;;;;;;8.50;4.22;;;;;;;32.19;63.07;100280.78;4954473;28;65693;-33
2022/07/11 09:05:15;;;;;;;14.23;5.40;;;;;;;32.20;63.09;100282.41;4954902;28;69277;-33
2022/07/11 09:07:50;;;;;;;10.00;4.77;;;;;;;32.19;62.91;100284.31;4958584;28;66117;-33
2022/07/11 09:10:21;;;;;;;7.30;4.45;;;;;;;32.13;63.22;100273.63;5016991;28;69246;-34
2022/07/11 09:13:02;;;;;;;8.13;4.57;;;;;;;32.20;62.75;100293.25;4951344;28;65985;-34
2022/07/11 09:15:38;;;;;;;9.93;5.20;;;;;;;32.14;62.95;100267.09;5017108;28;69616;-34
2022/07/11 09:18:38;;;;;;;6.88;4.50;;;;;;;32.10;63.17;100288.50;4957177;28;65841;-33
2022/07/11 09:26:54;;;;;;;6.82;5.45;;;;;;;32.20;63.41;100304.13;4954494;28;69621;-34
2022/07/11 09:29:27;;;;;;;7.10;5.20;;;;;;;32.18;63.34;100292.69;4959549;28;66327;-33
2022/07/11 09:31:57;;;;;;;6.57;5.10;;;;;;;32.18;62.87;100300.81;4959228;28;69490;-34
2022/07/11 09:34:28;;;;;;;5.72;4.82;;;;;;;32.16;63.23;100311.94;4959989;28;66110;-33
2022/07/11 09:36:59;;;;;;;6.70;5.55;;;;;;;32.19;62.86;100313.34;4959626;28;69969;-35
2022/07/11 09:39:30;;;;;;;10.63;5.43;;;;;;;32.17;63.47;100310.03;4959102;28;66538;-34
2022/07/11 09:42:01;;;;;;;8.68;5.50;;;;;;;32.17;63.33;100316.28;4958402;28;68708;-34
2022/07/11 09:44:33;;;;;;;7.05;4.43;;;;;;;32.19;63.22;100327.72;4959517;28;65475;-37
2022/07/11 09:47:10;;;;;;;7.68;5.30;;;;;;;32.10;63.15;100314.81;4958579;28;69193;-35
2022/07/11 09:49:41;;;;;;;5.95;4.38;;;;;;;32.18;63.27;100322.53;5024565;28;65221;-37
2022/07/11 09:52:17;;;;;;;9.98;5.07;;;;;;;32.18;63.10;100322.53;5022652;28;70447;-33
2022/07/11 09:55:00;;;;;;;8.90;5.38;;;;;;;32.15;63.14;100334.72;4958327;28;65470;-35
2022/07/11 09:57:38;;;;;;;5.10;4.32;;;;;;;32.16;63.07;100330.09;4957181;28;70262;-35
2022/07/11 10:00:11;;;;;;;7.88;4.80;;;;;;;31.58;63.25;100242.41;4956529;28;65345;-35
2022/07/11 10:02:42;;;;;;;7.95;4.93;;;;;;;32.15;63.44;100333.88;4956180;28;69890;-35
2022/07/11 10:05:13;;;;;;;7.85;5.18;;;;;;;32.07;63.19;100328.81;4958222;28;66703;-34
2022/07/11 10:07:44;;;;;;;6.00;4.70;;;;;;;32.13;63.73;100336.03;4955070;28;72012;-34
2022/07/11 10:10:16;;;;;;;5.95;4.13;;;;;;;32.12;63.19;100328.94;4954324;28;66041;-34
2022/07/11 10:12:47;;;;;;;8.80;4.40;;;;;;;32.13;63.18;100336.03;4960180;28;69736;-34
2022/07/11 10:15:24;;;;;;;6.07;4.30;;;;;;;31.81;63.16;100287.59;4954489;28;65090;-34
2022/07/11 10:18:29;;;;;;;10.70;4.65;;;;;;;32.00;63.51;100335.22;4955925;28;69782;-34
2022/07/11 10:21:06;;;;;;;10.13;4.57;;;;;;;32.12;63.08;100337.06;4956473;28;66588;-37
2022/07/11 10:23:50;;;;;;;5.65;4.20;;;;;;;32.13;63.15;100344.16;4951362;28;70055;-33
2022/07/11 10:26:43;;;;;;;7.57;4.30;;;;;;;32.03;63.39;100342.88;5021508;28;66686;-34
2022/07/11 10:29:20;;;;;;;;;;;;;;;31.75;65.74;100359.09;4964077;28;69956;-39
2022/07/11 10:32:13;;;;;;;5.57;5.07;;;;;;;31.29;65.78;100268.63;5022183;28;66689;-38
2022/07/11 10:34:47;;;;;;;7.00;5.00;;;;;;;31.87;65.79;100362.59;4958379;28;70163;-33
2022/07/11 10:37:21;;;;;;;7.07;5.55;;;;;;;31.63;66.91;100342.03;4956932;28;66571;-33
2022/07/11 10:39:59;;;;;;;9.38;5.40;;;;;;;31.70;67.70;100369.81;4957302;28;69957;-35
2022/07/11 10:42:41;;;;;;;12.50;5.70;;;;;;;31.38;67.85;100333.09;4962058;28;67944;-34
2022/07/11 10:45:12;;;;;;;;;;;;;;;31.36;69.07;100375.84;4958563;28;70343;-38
2022/07/11 10:47:44;;;;;;;7.57;5.18;;;;;;;31.32;67.91;100341.31;4998136;28;66360;-38
2022/07/11 10:50:38;;;;;;;8.68;4.90;;;;;;;31.59;67.78;100402.16;5021403;28;69857;-34
2022/07/11 10:53:11;;;;;;;8.63;5.30;;;;;;;31.58;67.97;100392.34;5020248;28;66246;-36
2022/07/11 10:56:11;;;;;;;8.82;5.05;;;;;;;31.44;69.33;100388.22;4959918;28;69577;-34
2022/07/11 10:59:17;;;;;;;10.02;5.30;;;;;;;30.89;69.15;100304.53;4956938;28;66249;-35
2022/07/11 11:02:06;;;;;;;16.17;5.45;;;;;;;31.42;69.60;100405.78;4957111;28;70196;-35
2022/07/11 11:04:47;;;;;;;14.73;5.80;;;;;;;31.45;70.38;100411.56;4955930;28;65265;-37
2022/07/11 11:07:37;;;;;;;22.08;6.82;;;;;;;31.42;70.74;100417.44;5021931;28;70136;-34
2022/07/11 11:10:29;;;;;;;13.50;5.70;;;;;;;31.43;70.55;100429.97;4953848;28;65508;-34
2022/07/11 11:13:07;;;;;;;10.10;5.40;;;;;;;31.46;70.73;100440.31;4955124;28;69450;-35
2022/07/11 11:15:54;;;;;;;12.55;5.43;;;;;;;31.41;70.86;100445.63;4957370;28;65306;-39
2022/07/11 11:18:25;;;;;;;10.65;5.75;;;;;;;31.44;70.69;100445.16;4958525;28;69656;-38
2022/07/11 11:21:09;;;;;;;21.92;5.88;;;;;;;31.41;71.02;100447.50;5011543;28;64549;-40
2022/07/11 11:23:59;;;;;;;8.60;4.70;;;;;;;31.42;70.72;100455.41;5015585;28;69577;-39
2022/07/11 11:26:52;;;;;;;8.75;5.03;;;;;;;31.32;70.81;100461.38;5012968;28;66819;-39
2022/07/11 11:29:29;;;;;;;8.77;4.63;;;;;;;31.36;71.32;100453.63;4995736;28;70208;-36
2022/07/11 11:32:08;;;;;;;10.77;5.35;;;;;;;31.43;71.35;100473.31;4997597;28;66109;-37
2022/07/11 11:34:41;;;;;;;9.38;4.93;;;;;;;31.45;71.08;100468.47;4975396;28;70172;-39
2022/07/11 11:37:16;;;;;;;10.90;4.93;;;;;;;31.48;70.85;100468.03;4955440;28;66154;-37
2022/07/11 11:39:46;;;;;;;19.55;4.90;;;;;;;31.54;70.28;100463.56;4957468;28;70049;-37
2022/07/11 11:42:17;;;;;;;10.35;4.57;;;;;;;31.58;70.10;100473.69;4955070;28;67321;-37
2022/07/11 11:44:51;;;;;;;8.95;4.03;;;;;;;31.66;69.64;100477.13;4951763;28;70222;-35
2022/07/11 11:47:23;;;;;;;10.60;4.63;;;;;;;31.67;69.45;100478.75;5021177;28;66241;-37
2022/07/11 11:49:54;;;;;;;7.10;4.20;;;;;;;31.70;68.90;100484.53;4954372;28;70858;-37
2022/07/11 11:52:28;;;;;;;7.82;3.95;;;;;;;31.76;68.82;100482.75;5019184;28;65006;-36
2022/07/11 11:54:59;;;;;;;7.82;4.50;;;;;;;31.76;68.55;100488.19;4958087;28;69543;-36
2022/07/11 11:57:30;;;;;;;10.02;4.82;;;;;;;31.73;68.38;100484.06;4958374;28;67801;-37
2022/07/11 12:00:02;;;;;;;11.50;4.20;;;;;;;31.69;68.80;100476.63;4956682;28;71259;-35
2022/07/11 12:02:32;;;;;;;5.35;3.78;;;;;;;31.79;68.29;100488.56;4955172;28;66130;-37